Ely, NV (89315)

9:09 PM PDT on August 03, 2015 (GMT -0700)
APRSWXNET | | Change Station
CLOSE
Current Station
Personal Weather Station
Location: Duckwater, NV
Elevation: 6594 ft
Nearby Weather Stations

Elev 6594 ft 39.23 °N, 114.90 °W | Updated 21 minutes ago

Partly Cloudy
Partly Cloudy
68 °F
Feels Like 68 °F
N
2
Wind Variable Wind from SSW
Gusts 4.0 mph

Today
High -- | Low -- °F
--% Chance of Precip.
Yesterday
High -- | Low -- °F
Precip. -- in
5:41 AM 7:49 PM
Waning Gibbous, 81% visible
Pressure 29.85 in
Visibility 10.0 miles
Clouds Clear
Dew Point 42 °F
Humidity 39%
Rainfall in
Snow Depth Not available.
UV 0 out of 12
Pollen 6.20 out of 12
Air Quality Not available.
Flu Activity Not available.
METAR KELY 040353Z AUTO 02008KT 10SM CLR 19/07 A3015 RMK AO2 SLP106 T01940067

More Conditions Fewer Conditions

Pressure 29.85 in
Visibility 10.0 miles
Clouds Clear
Dew Point 42 °F
Humidity 39%
Rainfall in
Snow Depth Not available.
UV 0 out of 12
Pollen 6.20 out of 12
Air Quality Not available.
Flu Activity Not available.
METAR KELY 040353Z AUTO 02008KT 10SM CLR 19/07 A3015 RMK AO2 SLP106 T01940067

More Conditions Fewer Conditions

10-Day Weather Forecast

×

Almanac

Astronomy

Aug. 03, 2015 Rise Set
Actual Time
Civil Twilight
Nautical Twilight
Astronomical Twilight
Moon
Length of Visible Light
Length of Day
Tomorrow will be .
, % of the Moon is Illuminated

Today's Extremes

State Highs State Lows

Community

WunderPhotos

Upload Photos

1,843,853 photos uploaded!

WunderBlogs® & News

Nearby

Air Quality

  Air Quality AQ Index Pollutant
Not available.

Snow Depth

Station Depth Elevation

Earthquake Activity

City Distance Mag. Time & Date
Minimum magnitude displayed is 2.5.

Coastal Water Temperatures

Place Temperature

Stations

Nearby Weather Stations

Station Location Temp. Windchill Dew Point Humidity Wind Precip. Elev Updated Type